createdAt,value
2018-07-15T00:00:32.327Z,80.35
2018-07-15T00:03:00.991Z,81.02
2018-07-15T00:05:29.796Z,81.41
2018-07-15T00:07:58.397Z,81.45
2018-07-15T00:10:27.136Z,81.18
2018-07-15T00:12:55.799Z,81.57
2018-07-15T00:15:24.485Z,81.67
2018-07-15T00:17:53.112Z,81.95
2018-07-15T00:20:21.760Z,81.37
2018-07-15T00:22:50.434Z,81.52
2018-07-15T00:25:19.136Z,81.99
2018-07-15T00:27:47.805Z,82.28
2018-07-15T00:30:16.483Z,82.60
2018-07-15T00:32:45.103Z,83.11
2018-07-15T00:35:13.788Z,82.89
2018-07-15T00:37:42.505Z,83.21
2018-07-15T00:40:11.196Z,83.85
2018-07-15T00:42:39.825Z,84.00
2018-07-15T00:45:08.533Z,83.92
2018-07-15T00:47:37.177Z,84.11
2018-07-15T00:50:05.952Z,84.35
2018-07-15T00:52:34.551Z,84.27
2018-07-15T00:55:03.287Z,84.55
2018-07-15T00:57:32.154Z,85.34
2018-07-15T01:00:00.802Z,85.52
2018-07-15T01:02:29.436Z,85.71
2018-07-15T01:04:58.035Z,85.14
2018-07-15T01:07:26.702Z,85.16
2018-07-15T01:09:55.367Z,85.54
2018-07-15T01:12:24.025Z,85.59
2018-07-15T01:14:52.648Z,85.90
2018-07-15T01:17:21.287Z,85.82
2018-07-15T01:19:49.880Z,86.08
2018-07-15T01:22:18.508Z,85.66
2018-07-15T01:24:47.127Z,86.38
2018-07-15T01:27:15.763Z,86.40
2018-07-15T01:29:44.383Z,86.47
2018-07-15T01:32:13.026Z,86.49
2018-07-15T01:34:41.635Z,85.99
2018-07-15T01:37:10.269Z,86.30
2018-07-15T01:39:38.908Z,86.49
2018-07-15T01:42:07.536Z,86.35
2018-07-15T01:44:36.196Z,86.49
2018-07-15T01:47:04.960Z,86.67
2018-07-15T01:49:33.635Z,86.25
2018-07-15T01:52:02.296Z,86.39
2018-07-15T01:54:31.051Z,86.72
2018-07-15T01:56:59.711Z,86.89
2018-07-15T01:59:28.362Z,86.85
2018-07-15T02:01:56.974Z,86.58
2018-07-15T02:04:25.649Z,86.97
2018-07-15T02:06:54.276Z,86.95
2018-07-15T02:09:22.947Z,86.99
2018-07-15T02:11:51.599Z,86.77
2018-07-15T02:14:20.212Z,86.91
2018-07-15T02:16:48.819Z,87.06
2018-07-15T02:19:17.415Z,86.85
2018-07-15T02:21:46.051Z,86.88
2018-07-15T02:24:14.680Z,86.69
2018-07-15T02:26:43.300Z,86.39
2018-07-15T02:29:12.106Z,86.41
2018-07-15T02:31:40.719Z,86.16
2018-07-15T02:34:10.446Z,86.01
2018-07-15T02:36:39.082Z,85.85
2018-07-15T02:39:09.070Z,85.61
2018-07-15T02:41:37.704Z,85.50
2018-07-15T02:44:06.931Z,85.34
2018-07-15T02:46:35.646Z,85.24
2018-07-15T02:49:04.283Z,85.08
2018-07-15T02:51:33.028Z,85.24
2018-07-15T02:54:01.738Z,85.29
2018-07-15T02:56:30.322Z,85.09
2018-07-15T02:58:58.942Z,85.17
2018-07-15T03:01:27.635Z,85.41
2018-07-15T03:03:56.405Z,85.60
2018-07-15T03:06:25.208Z,85.30
2018-07-15T03:08:53.807Z,85.35
2018-07-15T03:11:22.461Z,85.54
2018-07-15T03:13:51.154Z,85.40
2018-07-15T03:16:19.971Z,85.35
2018-07-15T03:18:48.572Z,85.44
2018-07-15T03:21:17.224Z,85.55
2018-07-15T03:23:45.847Z,85.69
2018-07-15T03:26:14.572Z,85.71
2018-07-15T03:28:43.203Z,85.53
2018-07-15T03:31:11.820Z,85.62
2018-07-15T03:33:40.460Z,85.51
2018-07-15T03:36:09.115Z,85.62
2018-07-15T03:38:37.776Z,85.54
2018-07-15T03:41:06.432Z,85.73
2018-07-15T03:43:35.108Z,85.75
2018-07-15T03:46:03.750Z,85.66
2018-07-15T03:48:32.580Z,85.58
2018-07-15T03:51:01.265Z,85.66
2018-07-15T03:53:29.922Z,85.80
2018-07-15T03:55:58.561Z,85.75
2018-07-15T03:58:27.247Z,85.79
2018-07-15T04:00:55.900Z,85.65
2018-07-15T04:03:24.599Z,85.59
2018-07-15T04:05:53.202Z,85.71
2018-07-15T04:08:21.844Z,85.66
2018-07-15T04:10:51.109Z,85.62
2018-07-15T04:13:19.928Z,85.44
2018-07-15T04:15:48.545Z,85.42
2018-07-15T04:18:17.167Z,85.01
2018-07-15T04:20:45.810Z,85.30
2018-07-15T04:23:14.475Z,85.27
2018-07-15T04:25:43.098Z,85.14
2018-07-15T04:28:11.875Z,84.95
2018-07-15T04:30:40.424Z,84.87
2018-07-15T04:33:09.074Z,84.40
2018-07-15T04:35:37.699Z,84.67
2018-07-15T04:38:06.393Z,84.67
2018-07-15T04:40:35.033Z,84.44
2018-07-15T04:43:03.647Z,84.59
2018-07-15T04:45:32.344Z,84.60
2018-07-15T04:48:01.007Z,84.56
2018-07-15T04:50:29.664Z,84.66
2018-07-15T04:52:58.328Z,84.61
2018-07-15T04:55:26.940Z,84.41
2018-07-15T04:57:55.585Z,84.18
2018-07-15T05:00:24.252Z,84.00
2018-07-15T05:02:52.876Z,83.74
2018-07-15T05:05:21.534Z,83.07
2018-07-15T05:07:50.183Z,83.07
2018-07-15T05:10:18.824Z,83.05
2018-07-15T05:12:47.488Z,82.86
2018-07-15T05:15:16.167Z,82.73
2018-07-15T05:17:44.842Z,82.78
2018-07-15T05:20:13.496Z,82.44
2018-07-15T05:22:42.135Z,82.15
2018-07-15T05:25:10.835Z,82.12
2018-07-15T05:27:39.508Z,81.70
2018-07-15T05:30:08.145Z,81.58
2018-07-15T05:32:36.803Z,81.81
2018-07-15T05:35:05.530Z,81.57
2018-07-15T05:37:34.203Z,80.50
2018-07-15T05:40:02.909Z,80.09
2018-07-15T05:42:31.553Z,78.90
2018-07-15T05:45:00.196Z,78.79
2018-07-15T05:47:28.847Z,78.34
2018-07-15T05:49:58.533Z,77.54
2018-07-15T05:52:27.141Z,77.58
2018-07-15T05:54:55.828Z,77.35
2018-07-15T05:57:24.463Z,76.65
2018-07-15T05:59:53.113Z,76.87
2018-07-15T06:02:21.695Z,76.89
2018-07-15T06:04:50.324Z,76.51
2018-07-15T06:07:19.124Z,76.64
2018-07-15T06:09:47.720Z,76.68
2018-07-15T06:12:16.458Z,76.10
2018-07-15T06:14:45.312Z,76.44
2018-07-15T06:17:14.040Z,75.98
2018-07-15T06:19:42.659Z,75.50
2018-07-15T06:22:11.337Z,75.70
2018-07-15T06:24:39.988Z,75.81
2018-07-15T06:27:08.628Z,76.01
2018-07-15T06:29:37.377Z,76.34
2018-07-15T06:32:06.349Z,76.14
2018-07-15T06:34:35.079Z,74.85
2018-07-15T06:37:04.089Z,74.88
2018-07-15T06:39:32.876Z,74.25
2018-07-15T06:42:01.616Z,74.03
2018-07-15T06:44:30.317Z,74.00
2018-07-15T06:46:59.012Z,73.14
2018-07-15T06:49:27.672Z,72.10
2018-07-15T06:51:56.387Z,72.05
2018-07-15T06:54:25.090Z,72.04
2018-07-15T06:56:53.755Z,72.50
2018-07-15T06:59:22.471Z,71.92
2018-07-15T07:01:51.135Z,72.06
2018-07-15T07:04:19.771Z,70.77
2018-07-15T07:06:48.510Z,70.38
2018-07-15T07:09:17.206Z,68.47
2018-07-15T07:11:46.029Z,68.34
2018-07-15T07:14:14.696Z,68.52
2018-07-15T07:16:43.328Z,68.22
2018-07-15T07:19:12.144Z,68.15
2018-07-15T07:21:41.392Z,68.33
2018-07-15T07:24:10.071Z,69.01
2018-07-15T07:26:38.755Z,68.05
2018-07-15T07:29:07.443Z,66.51
2018-07-15T07:34:10.989Z,65.45
2018-07-15T07:36:39.637Z,63.79
2018-07-15T07:39:08.346Z,63.12
2018-07-15T07:41:37.203Z,63.03
2018-07-15T07:44:05.830Z,62.49
2018-07-15T07:46:34.493Z,61.37
2018-07-15T07:49:03.167Z,62.17
2018-07-15T07:51:31.851Z,63.87
2018-07-15T07:54:00.633Z,62.68
2018-07-15T07:56:29.341Z,65.25
2018-07-15T07:58:57.984Z,65.60
2018-07-15T08:01:26.688Z,65.16
2018-07-15T08:03:55.401Z,65.85
2018-07-15T08:06:24.048Z,66.65
2018-07-15T08:08:52.673Z,67.21
2018-07-15T08:11:21.339Z,67.15
2018-07-15T08:13:50.052Z,67.32
2018-07-15T08:16:18.723Z,66.97
2018-07-15T08:18:47.321Z,66.62
2018-07-15T08:21:15.984Z,65.61
2018-07-15T08:23:44.672Z,64.58
2018-07-15T08:26:13.341Z,64.76
2018-07-15T08:28:41.967Z,65.00
2018-07-15T08:31:18.411Z,65.01
2018-07-15T08:33:47.088Z,63.71
2018-07-15T08:36:15.971Z,62.94
2018-07-15T08:38:44.647Z,62.26
2018-07-15T08:41:13.303Z,61.61
2018-07-15T08:43:42.042Z,62.14
2018-07-15T08:46:10.988Z,61.24
2018-07-15T08:48:39.789Z,60.42
2018-07-15T08:51:08.454Z,61.30
2018-07-15T08:53:37.112Z,61.73
2018-07-15T08:56:05.832Z,61.11
2018-07-15T08:58:34.517Z,63.46
2018-07-15T09:01:03.257Z,64.02
2018-07-15T09:03:31.911Z,64.87
2018-07-15T09:06:00.592Z,63.82
2018-07-15T09:08:29.611Z,62.36
2018-07-15T09:10:58.518Z,61.82
2018-07-15T09:13:27.196Z,61.76
2018-07-15T09:15:55.880Z,63.61
2018-07-15T09:18:24.577Z,64.30
2018-07-15T09:20:53.259Z,64.22
2018-07-15T09:23:21.980Z,63.52
2018-07-15T09:25:50.833Z,63.31
2018-07-15T09:28:19.556Z,62.48
2018-07-15T09:30:48.208Z,62.65
2018-07-15T09:33:16.911Z,62.88
2018-07-15T09:35:45.592Z,63.24
2018-07-15T09:38:14.302Z,63.87
2018-07-15T09:40:42.928Z,64.35
2018-07-15T09:43:11.571Z,64.22
2018-07-15T09:45:40.597Z,65.38
2018-07-15T09:48:09.281Z,63.99
2018-07-15T09:50:37.905Z,64.45
2018-07-15T09:53:06.998Z,65.87
2018-07-15T09:55:35.626Z,66.15
2018-07-15T09:58:04.407Z,64.17
2018-07-15T10:00:38.576Z,63.36
2018-07-15T10:03:07.559Z,62.77
2018-07-15T10:05:36.265Z,62.07
2018-07-15T10:08:05.230Z,59.84
2018-07-15T10:10:33.970Z,58.84
2018-07-15T10:13:02.661Z,57.87
2018-07-15T10:15:31.398Z,57.76
2018-07-15T10:18:00.132Z,56.47
2018-07-15T10:20:28.877Z,56.89
2018-07-15T10:22:57.659Z,56.58
2018-07-15T10:25:26.400Z,55.47
2018-07-15T10:27:55.084Z,52.83
2018-07-15T10:30:23.786Z,52.59
2018-07-15T10:32:52.982Z,54.67
2018-07-15T10:35:21.855Z,54.51
2018-07-15T10:37:50.921Z,53.43
2018-07-15T10:40:19.673Z,54.28
2018-07-15T10:42:48.467Z,54.92
2018-07-15T10:45:17.103Z,54.65
2018-07-15T10:47:45.815Z,53.48
2018-07-15T10:50:14.509Z,54.04
2018-07-15T10:52:43.223Z,53.76
2018-07-15T10:55:11.880Z,52.03
2018-07-15T10:57:40.537Z,51.38
2018-07-15T11:00:09.357Z,52.10
2018-07-15T11:02:38.015Z,53.12
2018-07-15T11:05:06.855Z,52.22
2018-07-15T11:07:36.763Z,52.84
2018-07-15T11:10:05.573Z,52.27
2018-07-15T11:12:34.266Z,50.74
2018-07-15T11:15:03.042Z,51.21
2018-07-15T11:17:32.045Z,50.86
2018-07-15T11:20:00.668Z,51.78
2018-07-15T11:22:29.363Z,50.87
2018-07-15T11:24:58.266Z,50.41
2018-07-15T11:27:27.036Z,51.95
2018-07-15T11:29:55.729Z,52.44
2018-07-15T11:32:24.394Z,52.94
2018-07-15T11:34:53.026Z,53.78
2018-07-15T11:37:21.780Z,52.73
2018-07-15T11:39:50.828Z,53.88
2018-07-15T11:42:19.547Z,53.96
2018-07-15T11:44:48.593Z,53.94
2018-07-15T11:47:17.375Z,52.63
2018-07-15T11:49:46.058Z,52.28
2018-07-15T11:52:14.696Z,51.70
2018-07-15T11:54:43.479Z,50.72
2018-07-15T11:57:12.231Z,50.62
2018-07-15T11:59:40.955Z,50.36
2018-07-15T12:02:09.767Z,49.56
2018-07-15T12:04:38.467Z,51.16
2018-07-15T12:07:07.108Z,50.67
2018-07-15T12:09:35.795Z,49.92
2018-07-15T12:12:04.513Z,50.75
2018-07-15T12:14:33.226Z,50.85
2018-07-15T12:17:01.844Z,50.53
2018-07-15T12:19:30.532Z,50.34
2018-07-15T12:21:59.170Z,49.95
2018-07-15T12:24:27.884Z,50.11
2018-07-15T12:26:56.770Z,50.21
2018-07-15T12:29:25.475Z,49.68
2018-07-15T12:31:54.132Z,50.29
2018-07-15T12:34:23.113Z,48.84
2018-07-15T12:36:51.823Z,48.65
2018-07-15T12:39:20.660Z,48.13
2018-07-15T12:41:49.329Z,48.46
2018-07-15T12:44:18.032Z,48.12
2018-07-15T12:46:46.712Z,50.05
2018-07-15T12:49:15.429Z,49.10
2018-07-15T12:51:44.101Z,50.07
2018-07-15T12:54:12.756Z,50.45
2018-07-15T12:56:41.409Z,49.09
2018-07-15T12:59:10.161Z,49.06
2018-07-15T13:01:38.820Z,48.49
2018-07-15T13:04:07.539Z,48.64
2018-07-15T13:06:36.328Z,49.03
2018-07-15T13:09:05.529Z,48.66
2018-07-15T13:11:34.224Z,49.23
2018-07-15T13:14:02.900Z,50.31
2018-07-15T13:16:31.846Z,50.19
2018-07-15T13:19:00.552Z,49.29
2018-07-15T13:21:29.529Z,48.67
2018-07-15T13:23:58.144Z,48.38
2018-07-15T13:26:26.792Z,48.68
2018-07-15T13:28:55.502Z,48.08
2018-07-15T13:31:24.152Z,47.75
2018-07-15T13:33:52.872Z,47.69
2018-07-15T13:36:21.537Z,47.76
2018-07-15T13:38:50.321Z,49.02
2018-07-15T13:41:18.974Z,48.39
2018-07-15T13:43:47.634Z,47.97
2018-07-15T13:46:16.392Z,47.78
2018-07-15T13:48:45.052Z,48.05
2018-07-15T13:51:13.704Z,48.45
2018-07-15T13:53:42.395Z,48.86
2018-07-15T13:56:11.060Z,48.51
2018-07-15T13:58:39.752Z,48.45
2018-07-15T14:01:08.656Z,48.23
2018-07-15T14:03:37.643Z,47.94
2018-07-15T14:06:06.304Z,47.97
2018-07-15T14:08:34.909Z,47.46
2018-07-15T14:11:03.630Z,48.04
2018-07-15T14:13:32.347Z,48.79
2018-07-15T14:16:00.952Z,47.82
2018-07-15T14:18:29.649Z,47.71
2018-07-15T14:20:58.279Z,48.00
2018-07-15T14:23:26.904Z,48.10
2018-07-15T14:25:55.660Z,48.60
2018-07-15T14:28:24.325Z,48.52
2018-07-15T14:30:53.191Z,48.11
2018-07-15T14:33:21.888Z,48.39
2018-07-15T14:35:50.544Z,48.67
2018-07-15T14:38:19.409Z,49.07
2018-07-15T14:40:48.165Z,48.47
2018-07-15T14:43:16.820Z,49.78
2018-07-15T14:45:46.571Z,49.35
2018-07-15T14:48:15.236Z,49.23
2018-07-15T14:53:53.680Z,48.83
2018-07-15T14:56:22.314Z,50.21
2018-07-15T14:58:51.217Z,49.52
2018-07-15T15:01:20.573Z,49.71
2018-07-15T15:03:49.341Z,50.10
2018-07-15T15:06:18.138Z,49.94
2018-07-15T15:08:46.932Z,50.18
2018-07-15T15:11:15.709Z,50.95
2018-07-15T15:13:44.397Z,51.29
2018-07-15T15:16:13.194Z,50.72
2018-07-15T15:18:41.880Z,50.61
2018-07-15T15:21:11.267Z,51.03
2018-07-15T15:23:40.130Z,50.87
2018-07-15T15:26:08.811Z,50.82
2018-07-15T15:28:37.789Z,51.43
2018-07-15T15:31:06.697Z,52.06
2018-07-15T15:33:35.461Z,51.85
2018-07-15T15:36:04.922Z,52.27
2018-07-15T15:38:33.595Z,52.75
2018-07-15T15:41:02.325Z,52.57
2018-07-15T15:43:31.066Z,52.67
2018-07-15T15:45:59.772Z,53.06
2018-07-15T15:48:28.496Z,53.56
2018-07-15T15:50:57.504Z,53.22
2018-07-15T15:53:27.296Z,52.78
2018-07-15T15:55:56.063Z,52.55
2018-07-15T15:58:24.826Z,52.79
2018-07-15T16:00:53.481Z,53.01
2018-07-15T16:03:22.346Z,53.20
2018-07-15T16:05:51.047Z,53.02
2018-07-15T16:08:20.328Z,53.47
2018-07-15T16:10:49.084Z,53.47
2018-07-15T16:13:17.746Z,53.27
2018-07-15T16:15:46.509Z,53.12
2018-07-15T16:18:15.234Z,53.19
2018-07-15T16:20:44.026Z,53.98
2018-07-15T16:23:12.793Z,53.67
2018-07-15T16:25:41.543Z,53.73
2018-07-15T16:28:10.232Z,54.22
2018-07-15T16:30:38.984Z,54.68
2018-07-15T16:33:07.681Z,54.82
2018-07-15T16:35:36.468Z,54.80
2018-07-15T16:38:05.257Z,54.55
2018-07-15T16:40:33.993Z,55.31
2018-07-15T16:43:02.744Z,55.33
2018-07-15T16:45:31.560Z,55.43
2018-07-15T16:48:00.276Z,55.50
2018-07-15T16:50:31.103Z,55.74
2018-07-15T16:52:59.841Z,55.64
2018-07-15T16:55:28.748Z,55.26
2018-07-15T16:57:57.581Z,55.15
2018-07-15T17:00:26.314Z,55.41
2018-07-15T17:02:55.069Z,55.67
2018-07-15T17:05:24.780Z,55.31
2018-07-15T17:07:53.480Z,56.07
2018-07-15T17:10:22.953Z,55.79
2018-07-15T17:12:51.691Z,55.27
2018-07-15T17:15:20.420Z,55.91
2018-07-15T17:17:49.141Z,55.89
2018-07-15T17:20:17.795Z,55.76
2018-07-15T17:22:46.514Z,55.77
2018-07-15T17:25:15.266Z,56.13
2018-07-15T17:27:43.998Z,56.39
2018-07-15T17:30:12.735Z,56.45
2018-07-15T17:32:41.477Z,56.25
2018-07-15T17:35:10.206Z,56.85
2018-07-15T17:37:38.973Z,56.63
2018-07-15T17:40:07.682Z,56.73
2018-07-15T17:42:36.422Z,56.61
2018-07-15T17:45:11.961Z,56.47
2018-07-15T17:47:40.672Z,57.14
2018-07-15T17:50:09.360Z,56.89
2018-07-15T17:52:38.126Z,56.87
2018-07-15T17:55:06.845Z,57.09
2018-07-15T17:57:35.566Z,56.56
2018-07-15T18:00:05.020Z,57.05
2018-07-15T18:02:33.722Z,57.28
2018-07-15T18:05:02.382Z,56.38
2018-07-15T18:07:31.933Z,56.98
2018-07-15T18:10:00.717Z,56.99
2018-07-15T18:12:29.360Z,57.61
2018-07-15T18:14:58.163Z,57.32
2018-07-15T18:17:27.006Z,57.29
2018-07-15T18:19:55.852Z,57.80
2018-07-15T18:22:24.423Z,57.48
2018-07-15T18:24:53.140Z,58.30
2018-07-15T18:27:21.892Z,58.08
2018-07-15T18:29:50.444Z,58.58
2018-07-15T18:32:19.122Z,58.08
2018-07-15T18:34:48.093Z,57.28
2018-07-15T18:37:16.835Z,58.01
2018-07-15T18:39:46.516Z,57.51
2018-07-15T18:42:16.617Z,57.46
2018-07-15T18:44:45.276Z,57.48
2018-07-15T18:47:14.504Z,57.40
2018-07-15T18:49:43.746Z,57.35
2018-07-15T18:52:12.563Z,57.99
2018-07-15T18:54:41.277Z,58.57
2018-07-15T18:57:09.909Z,57.76
2018-07-15T18:59:38.653Z,58.16
2018-07-15T19:02:07.331Z,58.84
2018-07-15T19:04:36.185Z,58.94
2018-07-15T19:07:04.810Z,58.30
2018-07-15T19:09:33.866Z,58.61
2018-07-15T19:12:02.521Z,58.40
2018-07-15T19:14:31.227Z,58.60
2018-07-15T19:16:59.922Z,58.47
2018-07-15T19:19:29.433Z,58.09
2018-07-15T19:21:58.072Z,58.91
2018-07-15T19:24:26.797Z,59.46
2018-07-15T19:26:55.461Z,59.56
2018-07-15T19:29:24.741Z,60.14
2018-07-15T19:31:53.811Z,60.14
2018-07-15T19:34:22.577Z,60.38
2018-07-15T19:36:51.260Z,60.59
2018-07-15T19:39:19.945Z,60.18
2018-07-15T19:41:49.322Z,60.85
2018-07-15T19:44:18.034Z,60.43
2018-07-15T19:46:46.801Z,61.09
2018-07-15T19:49:15.883Z,60.88
2018-07-15T19:51:45.112Z,61.84
2018-07-15T19:54:13.867Z,61.44
2018-07-15T19:56:42.680Z,61.89
2018-07-15T19:59:11.366Z,63.27
2018-07-15T20:01:42.808Z,63.32
2018-07-15T20:04:11.806Z,63.71
2018-07-15T20:06:40.440Z,64.11
2018-07-15T20:09:09.324Z,64.09
2018-07-15T20:11:37.976Z,64.06
2018-07-15T20:14:06.664Z,63.89
2018-07-15T20:16:35.341Z,64.95
2018-07-15T20:19:04.275Z,65.48
2018-07-15T20:21:34.148Z,65.51
2018-07-15T20:24:02.861Z,65.70
2018-07-15T20:26:32.138Z,66.13
2018-07-15T20:29:01.163Z,66.95
2018-07-15T20:31:29.897Z,67.34
2018-07-15T20:33:59.618Z,67.79
2018-07-15T20:36:28.657Z,68.68
2018-07-15T20:38:57.490Z,67.72
2018-07-15T20:41:26.294Z,67.73
2018-07-15T20:43:55.155Z,68.37
2018-07-15T20:46:23.911Z,68.51
2018-07-15T20:48:52.606Z,69.05
2018-07-15T20:51:21.248Z,69.05
2018-07-15T20:53:49.978Z,69.37
2018-07-15T20:56:18.716Z,69.15
2018-07-15T20:58:47.591Z,68.07
2018-07-15T21:01:16.312Z,67.96
2018-07-15T21:03:45.305Z,68.09
2018-07-15T21:06:14.094Z,67.94
2018-07-15T21:08:42.801Z,68.84
2018-07-15T21:11:11.571Z,68.80
2018-07-15T21:13:40.332Z,69.63
2018-07-15T21:16:09.058Z,69.56
2018-07-15T21:18:38.197Z,69.63
2018-07-15T21:21:07.261Z,69.56
2018-07-15T21:23:35.943Z,70.50
2018-07-15T21:26:04.724Z,71.50
2018-07-15T21:28:33.600Z,71.80
2018-07-15T21:31:02.727Z,72.04
2018-07-15T21:33:31.506Z,72.22
2018-07-15T21:36:00.396Z,72.19
2018-07-15T21:38:29.133Z,72.04
2018-07-15T21:40:58.098Z,72.35
2018-07-15T21:43:26.940Z,72.63
2018-07-15T21:45:55.884Z,72.46
2018-07-15T21:48:24.915Z,72.07
2018-07-15T21:50:54.763Z,73.04
2018-07-15T21:53:23.730Z,72.97
2018-07-15T21:55:52.519Z,72.82
2018-07-15T21:58:21.523Z,72.76
2018-07-15T22:00:50.545Z,72.74
2018-07-15T22:03:19.267Z,72.59
2018-07-15T22:05:48.116Z,72.14
2018-07-15T22:08:28.032Z,72.63
2018-07-15T22:10:56.760Z,73.14
2018-07-15T22:13:25.864Z,72.93
2018-07-15T22:15:54.622Z,72.43
2018-07-15T22:18:24.905Z,73.17
2018-07-15T22:20:53.597Z,73.08
2018-07-15T22:23:22.437Z,73.14
2018-07-15T22:25:51.456Z,73.11
2018-07-15T22:28:20.222Z,73.34
2018-07-15T22:30:49.319Z,73.45
2018-07-15T22:33:17.995Z,73.68
2018-07-15T22:35:47.476Z,73.85
2018-07-15T22:38:16.130Z,73.72
2018-07-15T22:40:44.792Z,73.72
2018-07-15T22:43:13.460Z,74.02
2018-07-15T22:45:42.128Z,74.17
2018-07-15T22:48:10.810Z,74.23
2018-07-15T22:50:39.570Z,74.17
2018-07-15T22:53:08.236Z,74.12
2018-07-15T22:55:36.911Z,74.05
2018-07-15T22:58:05.761Z,73.51
2018-07-15T23:00:34.444Z,73.84
2018-07-15T23:03:03.120Z,74.65
2018-07-15T23:05:44.535Z,75.10
2018-07-15T23:08:13.267Z,75.68
2018-07-15T23:10:42.062Z,75.19
2018-07-15T23:13:11.484Z,75.07
2018-07-15T23:15:40.597Z,74.31
2018-07-15T23:18:09.727Z,73.16
2018-07-15T23:20:40.121Z,73.06
2018-07-15T23:23:09.663Z,72.43
2018-07-15T23:25:38.328Z,72.81
2018-07-15T23:28:08.718Z,72.35
2018-07-15T23:30:38.258Z,72.02
2018-07-15T23:33:07.477Z,71.82
2018-07-15T23:35:36.143Z,72.72
2018-07-15T23:38:04.947Z,71.96
2018-07-15T23:40:33.648Z,71.48
2018-07-15T23:43:02.784Z,71.98
2018-07-15T23:45:32.440Z,71.87
2018-07-15T23:48:01.216Z,72.55
2018-07-15T23:50:29.907Z,72.37
2018-07-15T23:52:58.591Z,72.66
2018-07-15T23:55:27.273Z,72.63
2018-07-15T23:57:56.065Z,73.48
